sensor_id;sensor_type;location;lat;lon;timestamp;P1;durP1;ratioP1;P2;durP2;ratioP2
9459;SDS011;4768;42.664;23.240;2023-05-10T00:00:27;0.23;;;0.23;;
9459;SDS011;4768;42.664;23.240;2023-05-10T00:02:54;0.20;;;0.10;;
9459;SDS011;4768;42.664;23.240;2023-05-10T00:05:21;0.20;;;0.20;;
9459;SDS011;4768;42.664;23.240;2023-05-10T00:07:48;0.07;;;0.07;;
9459;SDS011;4768;42.664;23.240;2023-05-10T00:10:14;0.10;;;0.10;;
9459;SDS011;4768;42.664;23.240;2023-05-10T00:12:41;1.13;;;0.27;;
9459;SDS011;4768;42.664;23.240;2023-05-10T00:15:10;0.00;;;0.00;;
9459;SDS011;4768;42.664;23.240;2023-05-10T00:17:37;0.73;;;0.23;;
9459;SDS011;4768;42.664;23.240;2023-05-10T00:20:04;0.57;;;0.20;;
9459;SDS011;4768;42.664;23.240;2023-05-10T00:22:32;0.00;;;0.00;;
9459;SDS011;4768;42.664;23.240;2023-05-10T00:24:58;1.80;;;0.17;;
9459;SDS011;4768;42.664;23.240;2023-05-10T00:27:25;0.07;;;0.07;;
9459;SDS011;4768;42.664;23.240;2023-05-10T00:29:52;0.17;;;0.17;;
9459;SDS011;4768;42.664;23.240;2023-05-10T00:32:20;0.00;;;0.00;;
9459;SDS011;4768;42.664;23.240;2023-05-10T00:34:47;0.00;;;0.00;;
9459;SDS011;4768;42.664;23.240;2023-05-10T00:37:13;0.10;;;0.10;;
9459;SDS011;4768;42.664;23.240;2023-05-10T00:39:40;0.47;;;0.33;;
9459;SDS011;4768;42.664;23.240;2023-05-10T00:42:07;0.47;;;0.40;;
9459;SDS011;4768;42.664;23.240;2023-05-10T00:44:33;0.70;;;0.47;;
9459;SDS011;4768;42.664;23.240;2023-05-10T00:47:00;0.40;;;0.10;;
9459;SDS011;4768;42.664;23.240;2023-05-10T00:49:28;0.10;;;0.10;;
9459;SDS011;4768;42.664;23.240;2023-05-10T00:51:56;0.57;;;0.43;;
9459;SDS011;4768;42.664;23.240;2023-05-10T00:54:23;0.03;;;0.03;;
9459;SDS011;4768;42.664;23.240;2023-05-10T00:56:50;0.43;;;0.30;;
9459;SDS011;4768;42.664;23.240;2023-05-10T00:59:17;0.20;;;0.20;;
9459;SDS011;4768;42.664;23.240;2023-05-10T01:01:44;0.00;;;0.00;;
9459;SDS011;4768;42.664;23.240;2023-05-10T01:04:12;1.23;;;0.40;;
9459;SDS011;4768;42.664;23.240;2023-05-10T01:06:41;0.00;;;0.00;;
9459;SDS011;4768;42.664;23.240;2023-05-10T01:09:08;0.30;;;0.30;;
9459;SDS011;4768;42.664;23.240;2023-05-10T01:11:35;0.33;;;0.33;;
9459;SDS011;4768;42.664;23.240;2023-05-10T01:14:04;0.60;;;0.37;;
9459;SDS011;4768;42.664;23.240;2023-05-10T01:16:33;2.50;;;0.40;;
9459;SDS011;4768;42.664;23.240;2023-05-10T01:19:04;0.13;;;0.13;;
9459;SDS011;4768;42.664;23.240;2023-05-10T01:21:38;0.33;;;0.33;;
9459;SDS011;4768;42.664;23.240;2023-05-10T01:24:12;0.40;;;0.40;;
9459;SDS011;4768;42.664;23.240;2023-05-10T01:33:19;0.07;;;0.07;;
9459;SDS011;4768;42.664;23.240;2023-05-10T01:35:55;0.03;;;0.03;;
9459;SDS011;4768;42.664;23.240;2023-05-10T01:38:29;0.00;;;0.00;;
9459;SDS011;4768;42.664;23.240;2023-05-10T01:41:07;0.13;;;0.13;;
9459;SDS011;4768;42.664;23.240;2023-05-10T01:43:42;0.40;;;0.40;;
9459;SDS011;4768;42.664;23.240;2023-05-10T01:46:20;0.27;;;0.27;;
9459;SDS011;4768;42.664;23.240;2023-05-10T01:48:55;0.23;;;0.23;;
9459;SDS011;4768;42.664;23.240;2023-05-10T01:51:25;0.13;;;0.13;;
9459;SDS011;4768;42.664;23.240;2023-05-10T01:53:58;0.07;;;0.07;;
9459;SDS011;4768;42.664;23.240;2023-05-10T01:56:28;0.10;;;0.10;;
9459;SDS011;4768;42.664;23.240;2023-05-10T01:58:57;0.87;;;0.30;;
9459;SDS011;4768;42.664;23.240;2023-05-10T02:01:26;0.40;;;0.40;;
9459;SDS011;4768;42.664;23.240;2023-05-10T02:03:55;0.10;;;0.10;;
9459;SDS011;4768;42.664;23.240;2023-05-10T02:06:23;0.00;;;0.00;;
9459;SDS011;4768;42.664;23.240;2023-05-10T02:08:51;0.10;;;0.10;;
9459;SDS011;4768;42.664;23.240;2023-05-10T02:11:19;0.30;;;0.20;;
9459;SDS011;4768;42.664;23.240;2023-05-10T02:13:48;0.00;;;0.00;;
9459;SDS011;4768;42.664;23.240;2023-05-10T02:16:16;0.00;;;0.00;;
9459;SDS011;4768;42.664;23.240;2023-05-10T02:18:47;0.30;;;0.30;;
9459;SDS011;4768;42.664;23.240;2023-05-10T02:21:16;0.10;;;0.10;;
9459;SDS011;4768;42.664;23.240;2023-05-10T02:23:45;0.17;;;0.17;;
9459;SDS011;4768;42.664;23.240;2023-05-10T02:26:14;0.10;;;0.10;;
9459;SDS011;4768;42.664;23.240;2023-05-10T02:28:43;0.97;;;0.53;;
9459;SDS011;4768;42.664;23.240;2023-05-10T02:31:10;0.10;;;0.10;;
9459;SDS011;4768;42.664;23.240;2023-05-10T02:33:38;0.13;;;0.07;;
9459;SDS011;4768;42.664;23.240;2023-05-10T02:36:07;0.00;;;0.00;;
9459;SDS011;4768;42.664;23.240;2023-05-10T02:38:37;0.50;;;0.20;;
9459;SDS011;4768;42.664;23.240;2023-05-10T02:41:05;0.20;;;0.20;;
9459;SDS011;4768;42.664;23.240;2023-05-10T02:43:33;0.27;;;0.27;;
9459;SDS011;4768;42.664;23.240;2023-05-10T02:46:02;0.40;;;0.40;;
9459;SDS011;4768;42.664;23.240;2023-05-10T02:48:28;0.30;;;0.20;;
9459;SDS011;4768;42.664;23.240;2023-05-10T02:50:56;0.20;;;0.20;;
9459;SDS011;4768;42.664;23.240;2023-05-10T02:53:31;0.23;;;0.23;;
9459;SDS011;4768;42.664;23.240;2023-05-10T02:56:01;0.20;;;0.20;;
9459;SDS011;4768;42.664;23.240;2023-05-10T02:58:32;0.00;;;0.00;;
9459;SDS011;4768;42.664;23.240;2023-05-10T03:00:59;0.30;;;0.20;;
9459;SDS011;4768;42.664;23.240;2023-05-10T03:03:26;0.10;;;0.10;;
9459;SDS011;4768;42.664;23.240;2023-05-10T03:05:53;0.00;;;0.00;;
9459;SDS011;4768;42.664;23.240;2023-05-10T03:08:21;0.27;;;0.27;;
9459;SDS011;4768;42.664;23.240;2023-05-10T03:10:53;0.17;;;0.10;;
9459;SDS011;4768;42.664;23.240;2023-05-10T03:13:29;26.67;;;0.67;;
9459;SDS011;4768;42.664;23.240;2023-05-10T03:16:05;0.90;;;0.50;;
9459;SDS011;4768;42.664;23.240;2023-05-10T03:18:38;0.20;;;0.20;;
9459;SDS011;4768;42.664;23.240;2023-05-10T03:21:10;0.30;;;0.30;;
9459;SDS011;4768;42.664;23.240;2023-05-10T03:23:40;0.00;;;0.00;;
9459;SDS011;4768;42.664;23.240;2023-05-10T03:26:09;0.87;;;0.10;;
9459;SDS011;4768;42.664;23.240;2023-05-10T03:28:40;0.00;;;0.00;;
9459;SDS011;4768;42.664;23.240;2023-05-10T03:31:07;0.10;;;0.10;;
9459;SDS011;4768;42.664;23.240;2023-05-10T03:33:35;0.00;;;0.00;;
9459;SDS011;4768;42.664;23.240;2023-05-10T03:36:02;0.00;;;0.00;;
9459;SDS011;4768;42.664;23.240;2023-05-10T03:38:29;0.20;;;0.17;;
9459;SDS011;4768;42.664;23.240;2023-05-10T03:40:55;0.20;;;0.20;;
9459;SDS011;4768;42.664;23.240;2023-05-10T03:43:22;0.57;;;0.30;;
9459;SDS011;4768;42.664;23.240;2023-05-10T03:45:50;1.00;;;0.40;;
9459;SDS011;4768;42.664;23.240;2023-05-10T03:48:17;0.00;;;0.00;;
9459;SDS011;4768;42.664;23.240;2023-05-10T03:50:43;0.07;;;0.07;;
9459;SDS011;4768;42.664;23.240;2023-05-10T03:53:10;0.03;;;0.03;;
9459;SDS011;4768;42.664;23.240;2023-05-10T03:55:37;0.30;;;0.30;;
9459;SDS011;4768;42.664;23.240;2023-05-10T03:58:04;0.30;;;0.30;;
9459;SDS011;4768;42.664;23.240;2023-05-10T04:00:30;0.57;;;0.57;;
9459;SDS011;4768;42.664;23.240;2023-05-10T04:02:59;0.60;;;0.50;;
9459;SDS011;4768;42.664;23.240;2023-05-10T04:05:26;0.47;;;0.47;;
9459;SDS011;4768;42.664;23.240;2023-05-10T04:07:52;0.30;;;0.20;;
9459;SDS011;4768;42.664;23.240;2023-05-10T04:10:19;3.00;;;1.17;;
9459;SDS011;4768;42.664;23.240;2023-05-10T04:12:46;0.27;;;0.10;;
9459;SDS011;4768;42.664;23.240;2023-05-10T04:15:13;0.10;;;0.10;;
9459;SDS011;4768;42.664;23.240;2023-05-10T04:17:39;0.87;;;0.23;;
9459;SDS011;4768;42.664;23.240;2023-05-10T04:20:08;0.23;;;0.23;;
9459;SDS011;4768;42.664;23.240;2023-05-10T04:22:36;0.20;;;0.20;;
9459;SDS011;4768;42.664;23.240;2023-05-10T04:25:03;0.57;;;0.57;;
9459;SDS011;4768;42.664;23.240;2023-05-10T04:27:30;0.40;;;0.33;;
9459;SDS011;4768;42.664;23.240;2023-05-10T04:29:57;0.10;;;0.10;;
9459;SDS011;4768;42.664;23.240;2023-05-10T04:32:23;0.00;;;0.00;;
9459;SDS011;4768;42.664;23.240;2023-05-10T04:34:50;0.10;;;0.10;;
9459;SDS011;4768;42.664;23.240;2023-05-10T04:37:19;0.20;;;0.10;;
9459;SDS011;4768;42.664;23.240;2023-05-10T04:39:47;1.00;;;0.37;;
9459;SDS011;4768;42.664;23.240;2023-05-10T04:42:14;0.20;;;0.20;;
9459;SDS011;4768;42.664;23.240;2023-05-10T04:44:41;0.77;;;0.37;;
9459;SDS011;4768;42.664;23.240;2023-05-10T04:47:08;1.17;;;0.50;;
9459;SDS011;4768;42.664;23.240;2023-05-10T04:49:35;1.03;;;0.30;;
9459;SDS011;4768;42.664;23.240;2023-05-10T04:52:01;0.40;;;0.30;;
9459;SDS011;4768;42.664;23.240;2023-05-10T04:54:30;0.00;;;0.00;;
9459;SDS011;4768;42.664;23.240;2023-05-10T04:56:56;0.13;;;0.13;;
9459;SDS011;4768;42.664;23.240;2023-05-10T04:59:23;0.00;;;0.00;;
9459;SDS011;4768;42.664;23.240;2023-05-10T05:01:50;0.50;;;0.50;;
9459;SDS011;4768;42.664;23.240;2023-05-10T05:04:16;0.43;;;0.10;;
9459;SDS011;4768;42.664;23.240;2023-05-10T05:06:43;0.20;;;0.20;;
9459;SDS011;4768;42.664;23.240;2023-05-10T05:09:10;0.43;;;0.43;;
9459;SDS011;4768;42.664;23.240;2023-05-10T05:11:38;0.33;;;0.30;;
9459;SDS011;4768;42.664;23.240;2023-05-10T05:14:06;0.10;;;0.10;;
9459;SDS011;4768;42.664;23.240;2023-05-10T05:16:33;0.20;;;0.20;;
9459;SDS011;4768;42.664;23.240;2023-05-10T05:19:00;0.00;;;0.00;;
9459;SDS011;4768;42.664;23.240;2023-05-10T05:21:26;0.10;;;0.10;;
9459;SDS011;4768;42.664;23.240;2023-05-10T05:23:54;0.20;;;0.20;;
9459;SDS011;4768;42.664;23.240;2023-05-10T05:26:20;0.20;;;0.20;;
9459;SDS011;4768;42.664;23.240;2023-05-10T05:28:49;0.13;;;0.13;;
9459;SDS011;4768;42.664;23.240;2023-05-10T05:31:18;0.53;;;0.30;;
9459;SDS011;4768;42.664;23.240;2023-05-10T05:33:45;0.20;;;0.20;;
9459;SDS011;4768;42.664;23.240;2023-05-10T05:36:12;0.40;;;0.40;;
9459;SDS011;4768;42.664;23.240;2023-05-10T05:38:39;0.53;;;0.40;;
9459;SDS011;4768;42.664;23.240;2023-05-10T05:41:05;0.30;;;0.30;;
9459;SDS011;4768;42.664;23.240;2023-05-10T05:43:32;0.10;;;0.10;;
9459;SDS011;4768;42.664;23.240;2023-05-10T05:46:00;0.63;;;0.63;;
9459;SDS011;4768;42.664;23.240;2023-05-10T05:48:28;0.40;;;0.40;;
9459;SDS011;4768;42.664;23.240;2023-05-10T05:50:55;0.10;;;0.10;;
9459;SDS011;4768;42.664;23.240;2023-05-10T05:53:22;0.50;;;0.50;;
9459;SDS011;4768;42.664;23.240;2023-05-10T05:55:52;0.33;;;0.30;;
9459;SDS011;4768;42.664;23.240;2023-05-10T05:58:20;0.20;;;0.20;;
9459;SDS011;4768;42.664;23.240;2023-05-10T06:00:47;0.23;;;0.23;;
9459;SDS011;4768;42.664;23.240;2023-05-10T06:03:15;0.50;;;0.50;;
9459;SDS011;4768;42.664;23.240;2023-05-10T06:05:42;0.30;;;0.30;;
9459;SDS011;4768;42.664;23.240;2023-05-10T06:08:09;0.30;;;0.23;;
9459;SDS011;4768;42.664;23.240;2023-05-10T06:10:35;0.10;;;0.10;;
9459;SDS011;4768;42.664;23.240;2023-05-10T06:13:02;2.27;;;0.80;;
9459;SDS011;4768;42.664;23.240;2023-05-10T06:15:29;0.20;;;0.20;;
9459;SDS011;4768;42.664;23.240;2023-05-10T06:17:57;0.07;;;0.07;;
9459;SDS011;4768;42.664;23.240;2023-05-10T06:20:25;0.77;;;0.73;;
9459;SDS011;4768;42.664;23.240;2023-05-10T06:22:52;0.10;;;0.10;;
9459;SDS011;4768;42.664;23.240;2023-05-10T06:25:18;3.10;;;0.77;;
9459;SDS011;4768;42.664;23.240;2023-05-10T06:27:45;1.40;;;1.30;;
9459;SDS011;4768;42.664;23.240;2023-05-10T06:30:12;0.10;;;0.10;;
9459;SDS011;4768;42.664;23.240;2023-05-10T06:32:40;0.83;;;0.53;;
9459;SDS011;4768;42.664;23.240;2023-05-10T06:35:09;0.67;;;0.67;;
9459;SDS011;4768;42.664;23.240;2023-05-10T06:37:37;0.53;;;0.43;;
9459;SDS011;4768;42.664;23.240;2023-05-10T06:40:04;0.50;;;0.30;;
9459;SDS011;4768;42.664;23.240;2023-05-10T06:42:32;1.13;;;0.30;;
9459;SDS011;4768;42.664;23.240;2023-05-10T06:44:59;0.40;;;0.40;;
9459;SDS011;4768;42.664;23.240;2023-05-10T06:47:25;1.70;;;0.53;;
9459;SDS011;4768;42.664;23.240;2023-05-10T06:49:52;1.10;;;0.50;;
9459;SDS011;4768;42.664;23.240;2023-05-10T06:52:19;0.63;;;0.63;;
9459;SDS011;4768;42.664;23.240;2023-05-10T06:54:47;0.57;;;0.53;;
9459;SDS011;4768;42.664;23.240;2023-05-10T06:57:14;0.43;;;0.40;;
9459;SDS011;4768;42.664;23.240;2023-05-10T06:59:40;0.10;;;0.10;;
9459;SDS011;4768;42.664;23.240;2023-05-10T07:02:07;0.10;;;0.10;;
9459;SDS011;4768;42.664;23.240;2023-05-10T07:04:34;1.57;;;0.73;;
9459;SDS011;4768;42.664;23.240;2023-05-10T07:07:01;0.83;;;0.50;;
9459;SDS011;4768;42.664;23.240;2023-05-10T07:09:27;0.17;;;0.17;;
9459;SDS011;4768;42.664;23.240;2023-05-10T07:11:56;0.73;;;0.30;;
9459;SDS011;4768;42.664;23.240;2023-05-10T07:14:23;1.33;;;1.17;;
9459;SDS011;4768;42.664;23.240;2023-05-10T07:16:49;0.30;;;0.20;;
9459;SDS011;4768;42.664;23.240;2023-05-10T07:19:16;0.30;;;0.30;;
9459;SDS011;4768;42.664;23.240;2023-05-10T07:21:43;0.20;;;0.20;;
9459;SDS011;4768;42.664;23.240;2023-05-10T07:24:10;0.33;;;0.33;;
9459;SDS011;4768;42.664;23.240;2023-05-10T07:26:37;1.23;;;0.53;;
9459;SDS011;4768;42.664;23.240;2023-05-10T07:29:05;1.43;;;0.40;;
9459;SDS011;4768;42.664;23.240;2023-05-10T07:31:32;1.20;;;1.10;;
9459;SDS011;4768;42.664;23.240;2023-05-10T07:33:59;0.53;;;0.53;;
9459;SDS011;4768;42.664;23.240;2023-05-10T07:36:26;0.40;;;0.40;;
9459;SDS011;4768;42.664;23.240;2023-05-10T07:38:52;0.77;;;0.60;;
9459;SDS011;4768;42.664;23.240;2023-05-10T07:41:19;1.30;;;1.17;;
9459;SDS011;4768;42.664;23.240;2023-05-10T07:43:47;0.10;;;0.10;;
9459;SDS011;4768;42.664;23.240;2023-05-10T07:46:15;2.43;;;0.50;;
9459;SDS011;4768;42.664;23.240;2023-05-10T07:48:42;0.17;;;0.17;;
9459;SDS011;4768;42.664;23.240;2023-05-10T07:51:08;1.17;;;0.33;;
9459;SDS011;4768;42.664;23.240;2023-05-10T07:53:35;1.00;;;0.83;;
9459;SDS011;4768;42.664;23.240;2023-05-10T07:58:46;0.60;;;0.40;;
9459;SDS011;4768;42.664;23.240;2023-05-10T08:01:13;0.27;;;0.27;;
9459;SDS011;4768;42.664;23.240;2023-05-10T08:03:41;0.37;;;0.37;;
9459;SDS011;4768;42.664;23.240;2023-05-10T08:06:08;1.80;;;0.60;;
9459;SDS011;4768;42.664;23.240;2023-05-10T08:08:35;0.20;;;0.20;;
9459;SDS011;4768;42.664;23.240;2023-05-10T08:11:01;0.60;;;0.60;;
9459;SDS011;4768;42.664;23.240;2023-05-10T08:13:29;0.10;;;0.10;;
9459;SDS011;4768;42.664;23.240;2023-05-10T08:15:56;1.57;;;0.60;;
9459;SDS011;4768;42.664;23.240;2023-05-10T08:18:23;0.30;;;0.30;;
9459;SDS011;4768;42.664;23.240;2023-05-10T08:20:51;0.67;;;0.67;;
9459;SDS011;4768;42.664;23.240;2023-05-10T08:23:18;0.70;;;0.70;;
9459;SDS011;4768;42.664;23.240;2023-05-10T08:25:44;0.63;;;0.63;;
9459;SDS011;4768;42.664;23.240;2023-05-10T08:28:11;0.53;;;0.53;;
9459;SDS011;4768;42.664;23.240;2023-05-10T08:30:38;0.73;;;0.57;;
9459;SDS011;4768;42.664;23.240;2023-05-10T08:33:05;0.73;;;0.70;;
9459;SDS011;4768;42.664;23.240;2023-05-10T08:35:31;0.53;;;0.53;;
9459;SDS011;4768;42.664;23.240;2023-05-10T08:38:01;0.27;;;0.23;;
9459;SDS011;4768;42.664;23.240;2023-05-10T08:40:28;1.20;;;1.10;;
9459;SDS011;4768;42.664;23.240;2023-05-10T08:42:55;0.10;;;0.10;;
9459;SDS011;4768;42.664;23.240;2023-05-10T08:45:27;0.20;;;0.20;;
9459;SDS011;4768;42.664;23.240;2023-05-10T08:47:59;0.33;;;0.33;;
9459;SDS011;4768;42.664;23.240;2023-05-10T08:50:27;0.00;;;0.00;;
9459;SDS011;4768;42.664;23.240;2023-05-10T08:52:55;0.60;;;0.60;;
9459;SDS011;4768;42.664;23.240;2023-05-10T08:55:27;0.10;;;0.10;;
9459;SDS011;4768;42.664;23.240;2023-05-10T08:57:55;0.03;;;0.03;;
9459;SDS011;4768;42.664;23.240;2023-05-10T09:00:22;0.17;;;0.17;;
9459;SDS011;4768;42.664;23.240;2023-05-10T09:02:49;0.23;;;0.23;;
9459;SDS011;4768;42.664;23.240;2023-05-10T09:05:16;0.20;;;0.20;;
9459;SDS011;4768;42.664;23.240;2023-05-10T09:07:43;0.53;;;0.50;;
9459;SDS011;4768;42.664;23.240;2023-05-10T09:10:10;2.47;;;0.90;;
9459;SDS011;4768;42.664;23.240;2023-05-10T09:12:40;0.00;;;0.00;;
9459;SDS011;4768;42.664;23.240;2023-05-10T09:15:09;0.70;;;0.70;;
9459;SDS011;4768;42.664;23.240;2023-05-10T09:17:36;0.30;;;0.30;;
9459;SDS011;4768;42.664;23.240;2023-05-10T09:20:05;0.40;;;0.40;;
9459;SDS011;4768;42.664;23.240;2023-05-10T09:22:32;0.20;;;0.20;;
9459;SDS011;4768;42.664;23.240;2023-05-10T09:25:06;1.13;;;0.50;;
9459;SDS011;4768;42.664;23.240;2023-05-10T09:27:34;0.57;;;0.47;;
9459;SDS011;4768;42.664;23.240;2023-05-10T09:30:03;1.50;;;0.57;;
9459;SDS011;4768;42.664;23.240;2023-05-10T09:32:37;1.13;;;0.77;;
9459;SDS011;4768;42.664;23.240;2023-05-10T09:35:06;0.60;;;0.20;;
9459;SDS011;4768;42.664;23.240;2023-05-10T09:37:33;0.33;;;0.33;;
9459;SDS011;4768;42.664;23.240;2023-05-10T09:40:00;1.53;;;1.03;;
9459;SDS011;4768;42.664;23.240;2023-05-10T09:42:27;0.73;;;0.70;;
9459;SDS011;4768;42.664;23.240;2023-05-10T09:44:54;0.60;;;0.30;;
9459;SDS011;4768;42.664;23.240;2023-05-10T09:47:28;0.30;;;0.30;;
9459;SDS011;4768;42.664;23.240;2023-05-10T09:49:55;0.60;;;0.60;;
9459;SDS011;4768;42.664;23.240;2023-05-10T09:52:28;0.27;;;0.27;;
9459;SDS011;4768;42.664;23.240;2023-05-10T09:54:55;0.43;;;0.43;;
9459;SDS011;4768;42.664;23.240;2023-05-10T09:57:22;1.63;;;0.57;;
9459;SDS011;4768;42.664;23.240;2023-05-10T09:59:49;0.43;;;0.43;;
9459;SDS011;4768;42.664;23.240;2023-05-10T10:02:19;1.60;;;0.47;;
9459;SDS011;4768;42.664;23.240;2023-05-10T10:04:47;4.53;;;0.60;;
9459;SDS011;4768;42.664;23.240;2023-05-10T10:07:17;0.50;;;0.43;;
9459;SDS011;4768;42.664;23.240;2023-05-10T10:09:48;0.17;;;0.17;;
9459;SDS011;4768;42.664;23.240;2023-05-10T10:12:16;0.53;;;0.53;;
9459;SDS011;4768;42.664;23.240;2023-05-10T10:14:43;0.27;;;0.27;;
9459;SDS011;4768;42.664;23.240;2023-05-10T10:17:09;0.50;;;0.30;;
9459;SDS011;4768;42.664;23.240;2023-05-10T10:19:37;0.50;;;0.50;;
9459;SDS011;4768;42.664;23.240;2023-05-10T10:22:05;4.23;;;0.90;;
9459;SDS011;4768;42.664;23.240;2023-05-10T10:24:32;0.53;;;0.53;;
9459;SDS011;4768;42.664;23.240;2023-05-10T10:27:00;0.40;;;0.40;;
9459;SDS011;4768;42.664;23.240;2023-05-10T10:29:36;1.00;;;0.70;;
9459;SDS011;4768;42.664;23.240;2023-05-10T10:32:12;0.60;;;0.33;;
9459;SDS011;4768;42.664;23.240;2023-05-10T10:34:48;0.30;;;0.30;;
9459;SDS011;4768;42.664;23.240;2023-05-10T10:37:17;0.60;;;0.60;;
9459;SDS011;4768;42.664;23.240;2023-05-10T10:39:43;0.20;;;0.20;;
9459;SDS011;4768;42.664;23.240;2023-05-10T10:42:10;0.57;;;0.50;;
9459;SDS011;4768;42.664;23.240;2023-05-10T10:44:37;1.17;;;0.50;;
9459;SDS011;4768;42.664;23.240;2023-05-10T10:47:06;0.20;;;0.20;;
9459;SDS011;4768;42.664;23.240;2023-05-10T10:49:43;1.33;;;1.10;;
9459;SDS011;4768;42.664;23.240;2023-05-10T10:52:25;2.90;;;0.70;;
9459;SDS011;4768;42.664;23.240;2023-05-10T10:54:58;0.30;;;0.30;;
9459;SDS011;4768;42.664;23.240;2023-05-10T10:57:26;0.47;;;0.47;;
9459;SDS011;4768;42.664;23.240;2023-05-10T11:02:53;0.53;;;0.53;;
9459;SDS011;4768;42.664;23.240;2023-05-10T11:05:23;0.33;;;0.33;;
9459;SDS011;4768;42.664;23.240;2023-05-10T11:07:53;0.53;;;0.50;;
9459;SDS011;4768;42.664;23.240;2023-05-10T11:10:21;0.20;;;0.20;;
9459;SDS011;4768;42.664;23.240;2023-05-10T11:12:52;0.23;;;0.23;;
9459;SDS011;4768;42.664;23.240;2023-05-10T11:15:28;1.30;;;0.77;;
9459;SDS011;4768;42.664;23.240;2023-05-10T11:17:55;0.73;;;0.63;;
9459;SDS011;4768;42.664;23.240;2023-05-10T11:20:22;1.03;;;0.90;;
9459;SDS011;4768;42.664;23.240;2023-05-10T11:22:55;0.40;;;0.40;;
9459;SDS011;4768;42.664;23.240;2023-05-10T11:25:26;1.10;;;1.00;;
9459;SDS011;4768;42.664;23.240;2023-05-10T11:27:53;0.23;;;0.23;;
9459;SDS011;4768;42.664;23.240;2023-05-10T11:30:20;1.70;;;0.37;;
9459;SDS011;4768;42.664;23.240;2023-05-10T11:32:47;0.70;;;0.67;;
9459;SDS011;4768;42.664;23.240;2023-05-10T11:35:14;0.47;;;0.20;;
9459;SDS011;4768;42.664;23.240;2023-05-10T11:37:40;0.67;;;0.27;;
9459;SDS011;4768;42.664;23.240;2023-05-10T11:40:11;0.40;;;0.40;;
9459;SDS011;4768;42.664;23.240;2023-05-10T11:42:38;0.07;;;0.07;;
9459;SDS011;4768;42.664;23.240;2023-05-10T11:45:05;8.63;;;6.30;;
9459;SDS011;4768;42.664;23.240;2023-05-10T11:47:33;12.20;;;8.03;;
9459;SDS011;4768;42.664;23.240;2023-05-10T11:50:00;6.83;;;4.90;;
9459;SDS011;4768;42.664;23.240;2023-05-10T11:52:27;13.47;;;8.23;;
9459;SDS011;4768;42.664;23.240;2023-05-10T11:54:54;8.53;;;6.03;;
9459;SDS011;4768;42.664;23.240;2023-05-10T11:57:26;8.03;;;5.83;;
9459;SDS011;4768;42.664;23.240;2023-05-10T11:59:53;7.07;;;5.23;;
9459;SDS011;4768;42.664;23.240;2023-05-10T12:02:20;9.83;;;6.60;;
9459;SDS011;4768;42.664;23.240;2023-05-10T12:04:47;7.40;;;6.37;;
9459;SDS011;4768;42.664;23.240;2023-05-10T12:07:15;11.27;;;6.00;;
9459;SDS011;4768;42.664;23.240;2023-05-10T12:09:43;7.00;;;5.93;;
9459;SDS011;4768;42.664;23.240;2023-05-10T12:12:10;9.40;;;6.37;;
9459;SDS011;4768;42.664;23.240;2023-05-10T12:14:43;7.23;;;5.73;;
9459;SDS011;4768;42.664;23.240;2023-05-10T12:17:14;9.13;;;6.97;;
9459;SDS011;4768;42.664;23.240;2023-05-10T12:19:41;7.23;;;5.60;;
9459;SDS011;4768;42.664;23.240;2023-05-10T12:22:08;6.73;;;4.90;;
9459;SDS011;4768;42.664;23.240;2023-05-10T12:24:36;7.00;;;5.97;;
9459;SDS011;4768;42.664;23.240;2023-05-10T12:27:04;6.23;;;4.80;;
9459;SDS011;4768;42.664;23.240;2023-05-10T12:29:33;9.10;;;6.03;;
9459;SDS011;4768;42.664;23.240;2023-05-10T12:32:01;8.07;;;6.27;;
9459;SDS011;4768;42.664;23.240;2023-05-10T12:34:30;10.03;;;6.33;;
9459;SDS011;4768;42.664;23.240;2023-05-10T12:36:58;7.40;;;5.17;;
9459;SDS011;4768;42.664;23.240;2023-05-10T12:39:25;7.43;;;5.67;;
9459;SDS011;4768;42.664;23.240;2023-05-10T12:41:51;7.90;;;5.80;;
9459;SDS011;4768;42.664;23.240;2023-05-10T12:44:18;10.30;;;6.20;;
9459;SDS011;4768;42.664;23.240;2023-05-10T12:46:45;9.17;;;6.53;;
9459;SDS011;4768;42.664;23.240;2023-05-10T12:49:14;6.80;;;5.73;;
9459;SDS011;4768;42.664;23.240;2023-05-10T12:51:41;8.63;;;6.40;;
9459;SDS011;4768;42.664;23.240;2023-05-10T12:54:08;7.50;;;5.70;;
9459;SDS011;4768;42.664;23.240;2023-05-10T12:56:35;10.47;;;6.83;;
9459;SDS011;4768;42.664;23.240;2023-05-10T12:59:02;9.17;;;5.70;;
9459;SDS011;4768;42.664;23.240;2023-05-10T13:01:28;10.13;;;5.93;;
9459;SDS011;4768;42.664;23.240;2023-05-10T13:03:55;8.30;;;6.03;;
9459;SDS011;4768;42.664;23.240;2023-05-10T13:06:23;7.07;;;5.70;;
9459;SDS011;4768;42.664;23.240;2023-05-10T13:08:50;8.20;;;6.43;;
9459;SDS011;4768;42.664;23.240;2023-05-10T13:11:17;8.23;;;5.70;;
9459;SDS011;4768;42.664;23.240;2023-05-10T13:13:44;7.17;;;5.43;;
9459;SDS011;4768;42.664;23.240;2023-05-10T13:16:11;10.03;;;4.67;;
9459;SDS011;4768;42.664;23.240;2023-05-10T13:18:38;8.13;;;5.50;;
9459;SDS011;4768;42.664;23.240;2023-05-10T13:21:05;7.03;;;5.10;;
9459;SDS011;4768;42.664;23.240;2023-05-10T13:23:33;6.53;;;4.97;;
9459;SDS011;4768;42.664;23.240;2023-05-10T13:26:00;7.97;;;6.00;;
9459;SDS011;4768;42.664;23.240;2023-05-10T13:28:27;9.20;;;6.77;;
9459;SDS011;4768;42.664;23.240;2023-05-10T13:30:54;10.13;;;7.37;;
9459;SDS011;4768;42.664;23.240;2023-05-10T13:33:21;7.90;;;5.80;;
9459;SDS011;4768;42.664;23.240;2023-05-10T13:35:48;8.07;;;6.00;;
9459;SDS011;4768;42.664;23.240;2023-05-10T13:38:15;8.60;;;5.93;;
9459;SDS011;4768;42.664;23.240;2023-05-10T13:40:43;6.97;;;5.20;;
9459;SDS011;4768;42.664;23.240;2023-05-10T13:43:09;9.53;;;6.10;;
9459;SDS011;4768;42.664;23.240;2023-05-10T13:45:36;7.67;;;5.83;;
9459;SDS011;4768;42.664;23.240;2023-05-10T13:48:04;6.60;;;4.63;;
9459;SDS011;4768;42.664;23.240;2023-05-10T13:50:30;6.37;;;4.63;;
9459;SDS011;4768;42.664;23.240;2023-05-10T13:52:57;9.67;;;5.87;;
9459;SDS011;4768;42.664;23.240;2023-05-10T13:58:47;7.63;;;5.17;;
9459;SDS011;4768;42.664;23.240;2023-05-10T14:01:14;10.80;;;6.63;;
9459;SDS011;4768;42.664;23.240;2023-05-10T14:03:41;7.83;;;5.33;;
9459;SDS011;4768;42.664;23.240;2023-05-10T14:06:07;9.30;;;6.03;;
9459;SDS011;4768;42.664;23.240;2023-05-10T14:08:34;9.10;;;5.57;;
9459;SDS011;4768;42.664;23.240;2023-05-10T14:11:01;9.87;;;4.90;;
9459;SDS011;4768;42.664;23.240;2023-05-10T14:13:28;11.10;;;6.07;;
9459;SDS011;4768;42.664;23.240;2023-05-10T14:15:56;8.63;;;5.63;;
9459;SDS011;4768;42.664;23.240;2023-05-10T14:18:25;8.53;;;5.87;;
9459;SDS011;4768;42.664;23.240;2023-05-10T14:20:52;7.23;;;5.40;;
9459;SDS011;4768;42.664;23.240;2023-05-10T14:23:19;6.43;;;4.80;;
9459;SDS011;4768;42.664;23.240;2023-05-10T14:25:49;10.43;;;6.27;;
9459;SDS011;4768;42.664;23.240;2023-05-10T14:28:16;7.93;;;5.37;;
9459;SDS011;4768;42.664;23.240;2023-05-10T14:30:43;10.20;;;5.90;;
9459;SDS011;4768;42.664;23.240;2023-05-10T14:33:11;7.63;;;5.80;;
9459;SDS011;4768;42.664;23.240;2023-05-10T14:35:38;9.37;;;5.93;;
9459;SDS011;4768;42.664;23.240;2023-05-10T14:38:05;7.97;;;5.40;;
9459;SDS011;4768;42.664;23.240;2023-05-10T14:40:32;7.63;;;5.63;;
9459;SDS011;4768;42.664;23.240;2023-05-10T14:42:59;8.60;;;6.67;;
9459;SDS011;4768;42.664;23.240;2023-05-10T14:45:26;11.70;;;7.53;;
9459;SDS011;4768;42.664;23.240;2023-05-10T14:47:52;10.63;;;7.17;;
9459;SDS011;4768;42.664;23.240;2023-05-10T14:50:20;9.00;;;5.90;;
9459;SDS011;4768;42.664;23.240;2023-05-10T14:56:04;12.40;;;7.60;;
9459;SDS011;4768;42.664;23.240;2023-05-10T14:58:32;8.80;;;6.33;;
9459;SDS011;4768;42.664;23.240;2023-05-10T15:00:58;10.17;;;5.80;;
9459;SDS011;4768;42.664;23.240;2023-05-10T15:03:25;10.80;;;7.23;;
9459;SDS011;4768;42.664;23.240;2023-05-10T15:05:53;7.23;;;5.20;;
9459;SDS011;4768;42.664;23.240;2023-05-10T15:08:21;9.50;;;6.40;;
9459;SDS011;4768;42.664;23.240;2023-05-10T15:10:48;8.73;;;5.43;;
9459;SDS011;4768;42.664;23.240;2023-05-10T15:13:15;6.67;;;4.87;;
9459;SDS011;4768;42.664;23.240;2023-05-10T15:15:42;8.13;;;5.30;;
9459;SDS011;4768;42.664;23.240;2023-05-10T15:18:09;7.27;;;5.73;;
9459;SDS011;4768;42.664;23.240;2023-05-10T15:20:35;10.60;;;7.50;;
9459;SDS011;4768;42.664;23.240;2023-05-10T15:23:04;7.63;;;5.60;;